Terminal Aerodrome Forecast
Issued by NWS Cleveland, OH

Home | Current Version | Previous Version | Text Only | Print | Product List | Glossary Off
Versions: 1 2 3 4 5 6 7 8 9 10 11 12 13 14 15 16 17 18 19 20 21

988
FTUS41 KCLE 152046 AAA
TAFYNG
TAF AMD
KYNG 152046Z 1521/1618 22012KT P6SM -SN SCT025 OVC045
     FM152130 24010G18KT 5SM -SN HZ OVC025
      TEMPO 1522/1601 1SM -SHSN OVC015
     FM160500 26010KT P6SM VCSH OVC025
     FM160900 24012KT 3SM -SN OVC018=

USA.gov is the U.S. government's official web portal to all federal, state and local government web resources and services.